createdAt,value
2023-01-17T00:00:33.799Z,98037.8
2023-01-17T00:01:38.174Z,98033.3
2023-01-17T00:02:42.492Z,98033.39
2023-01-17T00:03:46.973Z,98029.38
2023-01-17T00:04:51.329Z,98023.63
2023-01-17T00:05:55.567Z,98034.13
2023-01-17T00:06:59.804Z,98026.18
2023-01-17T00:08:04.083Z,98033.91
2023-01-17T00:09:08.311Z,98023.61
2023-01-17T00:10:12.584Z,98027.73
2023-01-17T00:11:16.803Z,98017.09
2023-01-17T00:12:21.088Z,98020.93
2023-01-17T00:13:25.341Z,98018.56
2023-01-17T00:14:29.584Z,98010.25
2023-01-17T00:15:33.847Z,98017.77
2023-01-17T00:16:38.070Z,98020.85
2023-01-17T00:17:42.297Z,98016.44
2023-01-17T00:18:46.509Z,98017.58
2023-01-17T00:19:50.740Z,98017.38
2023-01-17T00:20:54.978Z,98015.44
2023-01-17T00:21:59.249Z,98011.29
2023-01-17T00:23:03.532Z,98004.09
2023-01-17T00:24:07.734Z,98006.47
2023-01-17T00:25:11.952Z,98007.28
2023-01-17T00:26:16.186Z,98000.29
2023-01-17T00:27:20.424Z,98002.67
2023-01-17T00:28:24.713Z,98001.22
2023-01-17T00:29:29.006Z,98000.86
2023-01-17T00:30:33.216Z,97995.28
2023-01-17T00:31:37.601Z,97996.36
2023-01-17T00:32:41.866Z,97996.45
2023-01-17T00:33:46.101Z,97990.61
2023-01-17T00:34:50.345Z,97994.32
2023-01-17T00:35:54.586Z,97984.81
2023-01-17T00:36:58.838Z,97984.57
2023-01-17T00:38:03.347Z,97991.16
2023-01-17T00:39:07.670Z,97982.77
2023-01-17T00:40:11.890Z,97978.97
2023-01-17T00:41:16.208Z,97983.47
2023-01-17T00:42:20.488Z,97981.69
2023-01-17T00:43:24.745Z,97981
2023-01-17T00:44:28.992Z,97985.76
2023-01-17T00:45:33.227Z,97976.69
2023-01-17T00:46:37.763Z,97985.27
2023-01-17T00:47:42.119Z,97981.8
2023-01-17T00:48:46.345Z,97977.78
2023-01-17T00:49:50.588Z,97972.42
2023-01-17T00:50:54.838Z,97972.48
2023-01-17T00:51:59.119Z,97960.98
2023-01-17T00:53:03.377Z,97952.66
2023-01-17T00:54:07.604Z,97945.95
2023-01-17T00:55:11.868Z,97939.56
2023-01-17T00:56:16.101Z,97933.63
2023-01-17T00:57:20.344Z,97919.5
2023-01-17T00:58:24.548Z,97920.53
2023-01-17T00:59:28.750Z,97914
2023-01-17T01:00:33.173Z,97912.36
2023-01-17T01:01:38.070Z,97908.55
2023-01-17T01:02:42.859Z,97900.91
2023-01-17T01:03:47.256Z,97903.08
2023-01-17T01:04:51.489Z,97894.87
2023-01-17T01:05:55.723Z,97908.14
2023-01-17T01:06:59.991Z,97918.02
2023-01-17T01:08:04.229Z,97930.98
2023-01-17T01:09:08.659Z,97938.48
2023-01-17T01:10:12.941Z,97948.59
2023-01-17T01:11:17.181Z,97951.26
2023-01-17T01:12:21.405Z,97948.98
2023-01-17T01:13:25.721Z,97950.52
2023-01-17T01:14:29.924Z,97950.91
2023-01-17T01:15:34.142Z,97949.17
2023-01-17T01:16:39.088Z,97939.32
2023-01-17T01:17:43.303Z,97937.69
2023-01-17T01:18:47.502Z,97942.39
2023-01-17T01:19:51.738Z,97935.6
2023-01-17T01:20:57.020Z,97941.36
2023-01-17T01:22:01.225Z,97938.19
2023-01-17T01:23:05.476Z,97935.81
2023-01-17T01:24:09.721Z,97944.03
2023-01-17T01:25:13.993Z,97939.38
2023-01-17T01:26:18.243Z,97944.63
2023-01-17T01:27:22.464Z,97941.89
2023-01-17T01:28:26.747Z,97934.77
2023-01-17T01:29:30.994Z,97936.24
2023-01-17T01:30:35.276Z,97936.64
2023-01-17T01:31:39.708Z,97930.66
2023-01-17T01:32:43.991Z,97933.03
2023-01-17T01:33:48.204Z,97929.36
2023-01-17T01:34:52.400Z,97927.62
2023-01-17T01:35:56.642Z,97920.73
2023-01-17T01:37:00.899Z,97918.91
2023-01-17T01:38:05.137Z,97919.25
2023-01-17T01:39:09.427Z,97916.58
2023-01-17T01:40:13.680Z,97922.92
2023-01-17T01:41:17.936Z,97919.55
2023-01-17T01:42:22.191Z,97916.13
2023-01-17T01:43:26.421Z,97917.7
2023-01-17T01:44:30.685Z,97914.44
2023-01-17T01:45:35.004Z,97913.16
2023-01-17T01:46:39.405Z,97916.68
2023-01-17T01:47:43.704Z,97912.37
2023-01-17T01:48:47.940Z,97914.34
2023-01-17T01:49:52.194Z,97914.54
2023-01-17T01:50:56.504Z,97908.49
2023-01-17T01:52:00.722Z,97907.61
2023-01-17T01:53:04.995Z,97901.27
2023-01-17T01:54:09.239Z,97902.91
2023-01-17T01:55:13.587Z,97897.8
2023-01-17T01:56:17.816Z,97896.27
2023-01-17T01:57:22.039Z,97884.22
2023-01-17T01:58:27.308Z,97886.81
2023-01-17T01:59:31.576Z,97884.77
2023-01-17T02:00:35.984Z,97886.22
2023-01-17T02:01:40.766Z,97887.16
2023-01-17T02:02:45.275Z,97889.33
2023-01-17T02:03:49.554Z,97896.02
2023-01-17T02:04:53.887Z,97894.14
2023-01-17T02:05:58.145Z,97893.73
2023-01-17T02:07:02.384Z,97894.23
2023-01-17T02:08:06.589Z,97886.95
2023-01-17T02:09:10.849Z,97878.17
2023-01-17T02:10:15.077Z,97876.65
2023-01-17T02:11:19.352Z,97875.52
2023-01-17T02:12:23.594Z,97876.3
2023-01-17T02:13:27.826Z,97871.63
2023-01-17T02:14:32.102Z,97876.9
2023-01-17T02:15:36.325Z,97869.56
2023-01-17T02:16:40.696Z,97867.2
2023-01-17T02:17:45.008Z,97864.22
2023-01-17T02:18:49.244Z,97859.9
2023-01-17T02:19:53.465Z,97853.02
2023-01-17T02:20:57.672Z,97860.94
2023-01-17T02:22:01.938Z,97855.7
2023-01-17T02:23:06.175Z,97857.27
2023-01-17T02:24:10.482Z,97857.48
2023-01-17T02:25:14.748Z,97851.73
2023-01-17T02:26:19.149Z,97845.98
2023-01-17T02:27:23.372Z,97846.03
2023-01-17T02:28:27.615Z,97841.63
2023-01-17T02:29:31.855Z,97838.55
2023-01-17T02:30:36.148Z,97842.83
2023-01-17T02:31:40.547Z,97836.33
2023-01-17T02:32:44.837Z,97843.77
2023-01-17T02:33:49.104Z,97839
2023-01-17T02:34:53.360Z,97842.56
2023-01-17T02:35:57.820Z,97840.53
2023-01-17T02:37:02.345Z,97841.04
2023-01-17T02:38:06.607Z,97842.83
2023-01-17T02:39:10.863Z,97842.56
2023-01-17T02:40:15.100Z,97839.05
2023-01-17T02:41:19.418Z,97835.14
2023-01-17T02:42:23.642Z,97849.27
2023-01-17T02:43:27.867Z,97839.8
2023-01-17T02:44:32.080Z,97844.75
2023-01-17T02:45:36.338Z,97841.77
2023-01-17T02:46:40.701Z,97850.73
2023-01-17T02:47:44.997Z,97851.33
2023-01-17T02:48:49.238Z,97853.42
2023-01-17T02:49:53.516Z,97853.91
2023-01-17T02:50:57.734Z,97862.13
2023-01-17T02:52:01.962Z,97870.3
2023-01-17T02:53:06.197Z,97860.8
2023-01-17T02:54:10.421Z,97855.35
2023-01-17T02:55:14.684Z,97857.97
2023-01-17T02:56:18.956Z,97849.05
2023-01-17T02:57:23.202Z,97842.77
2023-01-17T02:58:27.426Z,97843.41
2023-01-17T02:59:31.699Z,97843.6
2023-01-17T03:00:35.952Z,97845.09
2023-01-17T03:01:40.418Z,97844.55
2023-01-17T03:02:44.882Z,97842.28
2023-01-17T03:03:49.202Z,97840.84
2023-01-17T03:04:53.437Z,97836.02
2023-01-17T03:05:57.656Z,97839.88
2023-01-17T03:07:01.935Z,97838.02
2023-01-17T03:08:06.175Z,97840.09
2023-01-17T03:09:10.438Z,97835.83
2023-01-17T03:10:14.657Z,97842.12
2023-01-17T03:11:18.882Z,97838.61
2023-01-17T03:12:23.101Z,97832.16
2023-01-17T03:13:28.407Z,97835.13
2023-01-17T03:14:32.647Z,97836.98
2023-01-17T03:15:36.876Z,97842.43
2023-01-17T03:16:41.140Z,97846
2023-01-17T03:17:45.490Z,97839.69
2023-01-17T03:18:49.743Z,97838.16
2023-01-17T03:19:53.958Z,97831.58
2023-01-17T03:20:58.235Z,97829.55
2023-01-17T03:22:02.467Z,97829.06
2023-01-17T03:23:06.689Z,97820.34
2023-01-17T03:24:10.918Z,97826.52
2023-01-17T03:25:15.139Z,97823.61
2023-01-17T03:26:19.401Z,97818.36
2023-01-17T03:27:23.653Z,97824.59
2023-01-17T03:28:27.875Z,97825.53
2023-01-17T03:29:32.082Z,97826.23
2023-01-17T03:30:36.358Z,97833.35
2023-01-17T03:31:40.685Z,97828.31
2023-01-17T03:32:44.926Z,97816.92
2023-01-17T03:33:49.157Z,97824.65
2023-01-17T03:34:55.661Z,97819.48
2023-01-17T03:35:59.887Z,97819.7
2023-01-17T03:37:04.193Z,97816.73
2023-01-17T03:38:08.427Z,97808.84
2023-01-17T03:39:12.992Z,97811.91
2023-01-17T03:40:17.227Z,97816.92
2023-01-17T03:41:21.422Z,97819.83
2023-01-17T03:42:25.674Z,97823.02
2023-01-17T03:43:29.917Z,97820.13
2023-01-17T03:44:34.123Z,97822.61
2023-01-17T03:45:38.417Z,97819.09
2023-01-17T03:46:42.712Z,97820.29
2023-01-17T03:47:46.950Z,97821.02
2023-01-17T03:48:51.298Z,97825.34
2023-01-17T03:49:56.562Z,97821.52
2023-01-17T03:51:00.892Z,97824.49
2023-01-17T03:52:05.152Z,97817.11
2023-01-17T03:53:09.392Z,97824.01
2023-01-17T03:54:13.644Z,97824.05
2023-01-17T03:55:17.874Z,97829.94
2023-01-17T03:56:22.136Z,97825.39
2023-01-17T03:57:26.340Z,97825.69
2023-01-17T03:58:30.533Z,97821.67
2023-01-17T03:59:34.763Z,97827.27
2023-01-17T04:00:39.052Z,97828.06
2023-01-17T04:01:43.473Z,97815.44
2023-01-17T04:02:48.232Z,97823.36
2023-01-17T04:03:52.564Z,97819.75
2023-01-17T04:04:56.801Z,97820
2023-01-17T04:06:01.071Z,97819.94
2023-01-17T04:07:05.313Z,97821.91
2023-01-17T04:08:09.577Z,97815.63
2023-01-17T04:09:13.797Z,97824.8
2023-01-17T04:10:18.049Z,97819.55
2023-01-17T04:11:22.290Z,97814.15
2023-01-17T04:12:26.513Z,97816.88
2023-01-17T04:13:30.781Z,97820.09
2023-01-17T04:14:35.083Z,97819.69
2023-01-17T04:15:39.333Z,97812.27
2023-01-17T04:16:43.677Z,97816.42
2023-01-17T04:17:48.008Z,97809.34
2023-01-17T04:18:52.254Z,97804.39
2023-01-17T04:19:56.473Z,97806.83
2023-01-17T04:21:00.759Z,97801.47
2023-01-17T04:22:05.017Z,97800.67
2023-01-17T04:23:09.220Z,97803.7
2023-01-17T04:24:13.448Z,97806.17
2023-01-17T04:25:19.669Z,97800.44
2023-01-17T04:26:23.932Z,97806.61
2023-01-17T04:27:28.137Z,97807.36
2023-01-17T04:28:32.332Z,97806.52
2023-01-17T04:29:36.601Z,97806.92
2023-01-17T04:30:40.971Z,97806.02
2023-01-17T04:31:45.522Z,97813
2023-01-17T04:32:49.906Z,97811.37
2023-01-17T04:33:54.120Z,97809.79
2023-01-17T04:34:58.378Z,97806.02
2023-01-17T04:36:02.611Z,97805.48
2023-01-17T04:37:06.828Z,97809.89
2023-01-17T04:38:11.099Z,97805.58
2023-01-17T04:39:15.319Z,97807.31
2023-01-17T04:40:19.583Z,97801.13
2023-01-17T04:41:23.841Z,97797.25
2023-01-17T04:42:28.059Z,97799.8
2023-01-17T04:43:32.341Z,97797.95
2023-01-17T04:44:36.541Z,97802.77
2023-01-17T04:45:40.773Z,97804.83
2023-01-17T04:46:44.970Z,97800.39
2023-01-17T04:47:49.207Z,97799.03
2023-01-17T04:48:53.478Z,97797.27
2023-01-17T04:49:57.719Z,97804.19
2023-01-17T04:51:01.963Z,97804.94
2023-01-17T04:52:06.195Z,97806.08
2023-01-17T04:53:10.456Z,97802.47
2023-01-17T04:54:14.667Z,97798.45
2023-01-17T04:55:18.981Z,97809.16
2023-01-17T04:56:23.221Z,97806.46
2023-01-17T04:57:27.570Z,97808
2023-01-17T04:58:31.784Z,97807.84
2023-01-17T04:59:35.996Z,97809.39
2023-01-17T05:00:40.234Z,97803.98
2023-01-17T05:01:44.546Z,97808.89
2023-01-17T05:02:48.997Z,97808.95
2023-01-17T05:03:53.324Z,97804.79
2023-01-17T05:04:58.585Z,97804.49
2023-01-17T05:06:02.856Z,97804.19
2023-01-17T05:07:07.174Z,97805.87
2023-01-17T05:08:11.425Z,97811.27
2023-01-17T05:09:15.632Z,97811.3
2023-01-17T05:10:19.899Z,97816.25
2023-01-17T05:11:24.137Z,97811.05
2023-01-17T05:12:28.394Z,97819.4
2023-01-17T05:13:32.630Z,97816.41
2023-01-17T05:14:36.957Z,97835.41
2023-01-17T05:15:41.276Z,97824.47
2023-01-17T05:16:45.596Z,97829.89
2023-01-17T05:17:49.879Z,97832.25
2023-01-17T05:18:54.150Z,97825.62
2023-01-17T05:19:58.346Z,97831.91
2023-01-17T05:21:02.584Z,97831.09
2023-01-17T05:22:06.853Z,97836.82
2023-01-17T05:23:11.099Z,97835.96
2023-01-17T05:24:15.378Z,97834.13
2023-01-17T05:25:19.615Z,97829.72
2023-01-17T05:26:23.978Z,97837
2023-01-17T05:27:28.299Z,97829.3
2023-01-17T05:28:32.543Z,97836.37
2023-01-17T05:29:36.756Z,97844.05
2023-01-17T05:30:41.136Z,97843.01
2023-01-17T05:31:45.566Z,97829.61
2023-01-17T05:32:49.839Z,97832.77
2023-01-17T05:33:54.082Z,97833.06
2023-01-17T05:34:58.327Z,97840.77
2023-01-17T05:36:02.538Z,97827.55
2023-01-17T05:37:06.753Z,97832.77
2023-01-17T05:38:10.993Z,97832.66
2023-01-17T05:39:15.235Z,97838.31
2023-01-17T05:40:20.491Z,97835.23
2023-01-17T05:41:24.811Z,97839.08
2023-01-17T05:42:29.036Z,97839.38
2023-01-17T05:43:33.305Z,97839.23
2023-01-17T05:44:37.536Z,97844.09
2023-01-17T05:45:41.751Z,97842.05
2023-01-17T05:46:45.983Z,97839.3
2023-01-17T05:47:50.232Z,97838.31
2023-01-17T05:48:54.436Z,97836.28
2023-01-17T05:49:58.687Z,97842.41
2023-01-17T05:51:02.968Z,97841.5
2023-01-17T05:52:07.224Z,97837.7
2023-01-17T05:53:11.456Z,97844.45
2023-01-17T05:54:15.670Z,97837.82
2023-01-17T05:55:19.905Z,97841.44
2023-01-17T05:56:24.154Z,97844.18
2023-01-17T05:57:28.399Z,97843.81
2023-01-17T05:58:32.654Z,97846.02
2023-01-17T05:59:38.545Z,97847.7
2023-01-17T06:00:42.787Z,97845.48
2023-01-17T06:01:47.024Z,97844.11
2023-01-17T06:02:51.387Z,97843.92
2023-01-17T06:03:55.686Z,97853.64
2023-01-17T06:05:01.835Z,97855.73
2023-01-17T06:06:07.369Z,97851.48
2023-01-17T06:07:11.588Z,97848.91
2023-01-17T06:08:15.841Z,97849.27
2023-01-17T06:09:20.078Z,97858.98
2023-01-17T06:10:24.319Z,97855.3
2023-01-17T06:11:28.583Z,97852.03
2023-01-17T06:12:32.829Z,97850.94
2023-01-17T06:13:37.148Z,97854.77
2023-01-17T06:14:41.420Z,97852.44
2023-01-17T06:15:45.803Z,97853.69
2023-01-17T06:16:50.115Z,97853.53
2023-01-17T06:17:54.639Z,97852.95
2023-01-17T06:18:58.861Z,97853.59
2023-01-17T06:20:03.061Z,97855.68
2023-01-17T06:21:07.336Z,97857.77
2023-01-17T06:22:11.566Z,97849.15
2023-01-17T06:23:15.895Z,97859.27
2023-01-17T06:24:20.124Z,97850.52
2023-01-17T06:25:24.367Z,97863.3
2023-01-17T06:26:28.612Z,97854.88
2023-01-17T06:27:32.856Z,97853.88
2023-01-17T06:28:37.107Z,97852.89
2023-01-17T06:29:41.354Z,97855.38
2023-01-17T06:30:45.584Z,97854.44
2023-01-17T06:31:49.841Z,97865.39
2023-01-17T06:32:54.078Z,97861.78
2023-01-17T06:33:58.338Z,97859
2023-01-17T06:35:02.567Z,97854.05
2023-01-17T06:36:06.797Z,97857.36
2023-01-17T06:37:11.058Z,97855.38
2023-01-17T06:38:15.283Z,97857.2
2023-01-17T06:39:19.529Z,97859.72
2023-01-17T06:40:23.745Z,97867.25
2023-01-17T06:41:27.947Z,97859.83
2023-01-17T06:42:32.204Z,97855.75
2023-01-17T06:43:36.446Z,97867.48
2023-01-17T06:44:40.751Z,97863.12
2023-01-17T06:45:45.004Z,97864.78
2023-01-17T06:46:49.542Z,97864.26
2023-01-17T06:47:53.886Z,97865.08
2023-01-17T06:48:58.088Z,97866.25
2023-01-17T06:50:02.344Z,97868.65
2023-01-17T06:51:06.601Z,97874.99
2023-01-17T06:52:10.815Z,97881.16
2023-01-17T06:53:15.021Z,97874.05
2023-01-17T06:54:19.269Z,97876.73
2023-01-17T06:55:23.484Z,97869.74
2023-01-17T06:56:27.746Z,97878.43
2023-01-17T06:57:31.993Z,97876.8
2023-01-17T06:58:36.199Z,97877.55
2023-01-17T06:59:40.474Z,97869.76
2023-01-17T07:00:44.808Z,97877.32
2023-01-17T07:01:49.245Z,97870.33
2023-01-17T07:02:53.519Z,97875.58
2023-01-17T07:03:57.814Z,97876.84
2023-01-17T07:05:02.152Z,97866.19
2023-01-17T07:06:06.382Z,97874.58
2023-01-17T07:07:10.656Z,97873.85
2023-01-17T07:08:15.207Z,97875.66
2023-01-17T07:09:19.460Z,97874.66
2023-01-17T07:10:23.704Z,97876.94
2023-01-17T07:11:27.996Z,97878.63
2023-01-17T07:12:32.231Z,97883.8
2023-01-17T07:13:37.472Z,97883.22
2023-01-17T07:14:41.725Z,97887.98
2023-01-17T07:15:45.980Z,97890.62
2023-01-17T07:16:50.336Z,97895.38
2023-01-17T07:17:54.631Z,97895.59
2023-01-17T07:18:58.849Z,97902.53
2023-01-17T07:20:03.077Z,97898.33
2023-01-17T07:21:07.307Z,97896.94
2023-01-17T07:22:11.565Z,97891.8
2023-01-17T07:23:15.786Z,97898.2
2023-01-17T07:24:20.025Z,97889.06
2023-01-17T07:25:25.214Z,97891.66
2023-01-17T07:26:31.154Z,97890.56
2023-01-17T07:27:35.374Z,97903.23
2023-01-17T07:28:39.738Z,97894.64
2023-01-17T07:29:44.118Z,97911.75
2023-01-17T07:30:48.447Z,97904.46
2023-01-17T07:31:52.731Z,97905.72
2023-01-17T07:32:57.010Z,97907.05
2023-01-17T07:34:01.226Z,97905.95
2023-01-17T07:35:05.468Z,97910.19
2023-01-17T07:36:09.758Z,97909.2
2023-01-17T07:37:16.148Z,97907.56
2023-01-17T07:38:20.359Z,97907.16
2023-01-17T07:39:24.560Z,97909.11
2023-01-17T07:40:28.828Z,97920.45
2023-01-17T07:41:33.064Z,97911.48
2023-01-17T07:42:37.296Z,97912.22
2023-01-17T07:43:41.528Z,97913.5
2023-01-17T07:44:45.748Z,97919.11
2023-01-17T07:45:49.983Z,97924.09
2023-01-17T07:46:54.356Z,97917.69
2023-01-17T07:47:58.716Z,97921.5
2023-01-17T07:49:02.937Z,97920.77
2023-01-17T07:50:07.167Z,97927.55
2023-01-17T07:51:11.435Z,97917.25
2023-01-17T07:52:18.970Z,97922.74
2023-01-17T07:53:23.255Z,97927.83
2023-01-17T07:54:27.528Z,97926.44
2023-01-17T07:55:31.762Z,97935.06
2023-01-17T07:56:35.987Z,97932.97
2023-01-17T07:57:40.180Z,97931.48
2023-01-17T07:58:44.531Z,97937.14
2023-01-17T07:59:48.838Z,97932.83
2023-01-17T08:00:53.366Z,97929.05
2023-01-17T08:01:58.071Z,97934.33
2023-01-17T08:03:02.537Z,97937.26
2023-01-17T08:04:06.850Z,97939
2023-01-17T08:05:11.194Z,97940.05
2023-01-17T08:06:15.425Z,97939.89
2023-01-17T08:07:19.671Z,97937.96
2023-01-17T08:08:23.919Z,97943.94
2023-01-17T08:09:28.166Z,97946.78
2023-01-17T08:10:32.421Z,97940.22
2023-01-17T08:11:36.645Z,97939.73
2023-01-17T08:12:40.926Z,97941.42
2023-01-17T08:13:45.252Z,97940.73
2023-01-17T08:14:49.553Z,97944.02
2023-01-17T08:15:53.761Z,97943.03
2023-01-17T08:16:58.017Z,97937.09
2023-01-17T08:18:02.255Z,97943.48
2023-01-17T08:19:08.786Z,97941.16
2023-01-17T08:20:13.060Z,97946.72
2023-01-17T08:21:17.335Z,97940.27
2023-01-17T08:22:21.609Z,97932.45
2023-01-17T08:23:25.833Z,97945.28
2023-01-17T08:24:30.042Z,97940.38
2023-01-17T08:25:34.253Z,97943.16
2023-01-17T08:26:38.555Z,97944.71
2023-01-17T08:27:42.830Z,97940.24
2023-01-17T08:28:47.040Z,97942.63
2023-01-17T08:29:51.260Z,97946.2
2023-01-17T08:30:55.470Z,97947.79
2023-01-17T08:31:59.717Z,97943.58
2023-01-17T08:33:03.933Z,97947.41
2023-01-17T08:34:08.190Z,97952.81
2023-01-17T08:35:12.373Z,97950.67
2023-01-17T08:36:16.647Z,97959.21
2023-01-17T08:37:20.918Z,97961.73
2023-01-17T08:38:25.148Z,97972.65
2023-01-17T08:39:29.384Z,97962.05
2023-01-17T08:40:33.641Z,97961.98
2023-01-17T08:41:37.882Z,97972.3
2023-01-17T08:42:42.123Z,97974.78
2023-01-17T08:43:46.342Z,97970.06
2023-01-17T08:44:50.555Z,97979.14
2023-01-17T08:45:54.864Z,97981.63
2023-01-17T08:46:59.567Z,97985.64
2023-01-17T08:48:03.831Z,97981.03
2023-01-17T08:49:08.225Z,97975.08
2023-01-17T08:50:12.587Z,97977.77
2023-01-17T08:51:16.812Z,97982.91
2023-01-17T08:52:21.025Z,97980.84
2023-01-17T08:53:25.262Z,97991.34
2023-01-17T08:54:29.508Z,97988.58
2023-01-17T08:55:33.753Z,97986.13
2023-01-17T08:56:37.971Z,97989
2023-01-17T08:57:42.228Z,97989.11
2023-01-17T08:58:46.432Z,97990.95
2023-01-17T08:59:50.682Z,97990.05
2023-01-17T09:00:55.099Z,97998.67
2023-01-17T09:01:59.777Z,97995.05
2023-01-17T09:03:04.275Z,97998.08
2023-01-17T09:04:08.567Z,97992.38
2023-01-17T09:05:12.927Z,97995.2
2023-01-17T09:06:17.201Z,98000.06
2023-01-17T09:07:21.469Z,97996.25
2023-01-17T09:08:25.722Z,97999.45
2023-01-17T09:09:29.955Z,97998.8
2023-01-17T09:10:34.194Z,98002.36
2023-01-17T09:11:38.400Z,98005.38
2023-01-17T09:12:42.709Z,97998.27
2023-01-17T09:13:46.964Z,98009.37
2023-01-17T09:14:51.201Z,98012.39
2023-01-17T09:15:55.473Z,98013.38
2023-01-17T09:16:59.665Z,98015.31
2023-01-17T09:18:03.875Z,98011.3
2023-01-17T09:19:08.134Z,98009.45
2023-01-17T09:20:12.452Z,98017.89
2023-01-17T09:21:16.744Z,98013.06
2023-01-17T09:22:21.109Z,98020.37
2023-01-17T09:23:25.363Z,98014.22
2023-01-17T09:24:29.630Z,98016.3
2023-01-17T09:25:33.899Z,98019.09
2023-01-17T09:26:38.152Z,98021.19
2023-01-17T09:27:42.390Z,98017
2023-01-17T09:28:46.713Z,98020.54
2023-01-17T09:29:50.957Z,98024.61
2023-01-17T09:30:55.300Z,98022.55
2023-01-17T09:31:59.565Z,98034.55
2023-01-17T09:33:03.802Z,98030.62
2023-01-17T09:34:08.091Z,98035.83
2023-01-17T09:35:12.332Z,98035.64
2023-01-17T09:36:16.648Z,98046.7
2023-01-17T09:37:20.906Z,98026.72
2023-01-17T09:38:27.662Z,98037.23
2023-01-17T09:39:31.979Z,98042
2023-01-17T09:40:36.218Z,98041.2
2023-01-17T09:41:40.455Z,98044.19
2023-01-17T09:42:44.676Z,98043.6
2023-01-17T09:43:48.926Z,98045.72
2023-01-17T09:44:53.227Z,98039.23
2023-01-17T09:45:57.669Z,98047.8
2023-01-17T09:47:02.049Z,98042.89
2023-01-17T09:48:06.335Z,98044.34
2023-01-17T09:49:10.609Z,98044.98
2023-01-17T09:50:14.876Z,98046.62
2023-01-17T09:51:19.136Z,98043.79
2023-01-17T09:52:23.366Z,98056.87
2023-01-17T09:53:30.547Z,98056.69
2023-01-17T09:54:34.827Z,98050.93
2023-01-17T09:55:39.090Z,98051.27
2023-01-17T09:56:43.320Z,98052.31
2023-01-17T09:57:47.519Z,98043.98
2023-01-17T09:58:51.738Z,98046.88
2023-01-17T10:00:04.307Z,98049.35
2023-01-17T10:01:08.823Z,98044.94
2023-01-17T10:02:13.789Z,98042.9
2023-01-17T10:03:18.725Z,98041.47
2023-01-17T10:04:24.319Z,98038.5
2023-01-17T10:05:28.670Z,98041.71
2023-01-17T10:06:32.966Z,98042.86
2023-01-17T10:07:37.185Z,98047.8
2023-01-17T10:08:41.389Z,98042.45
2023-01-17T10:09:45.618Z,98048.02
2023-01-17T10:10:49.903Z,98047.02
2023-01-17T10:11:54.142Z,98042.8
2023-01-17T10:12:58.490Z,98044.47
2023-01-17T10:14:02.740Z,98049.63
2023-01-17T10:15:07.001Z,98046.95
2023-01-17T10:16:11.267Z,98043.94
2023-01-17T10:17:15.511Z,98047.36
2023-01-17T10:18:30.725Z,98045.62
2023-01-17T10:19:37.259Z,98044.17
2023-01-17T10:20:41.476Z,98042.11
2023-01-17T10:21:45.738Z,98050.33
2023-01-17T10:22:49.953Z,98046.62
2023-01-17T10:23:54.205Z,98047.85
2023-01-17T10:24:58.459Z,98049.19
2023-01-17T10:26:02.843Z,98045.38
2023-01-17T10:27:07.109Z,98042.39
2023-01-17T10:28:11.555Z,98041.32
2023-01-17T10:29:15.778Z,98042.95
2023-01-17T10:30:20.072Z,98044.34
2023-01-17T10:31:24.385Z,98045.73
2023-01-17T10:32:28.620Z,98052.22
2023-01-17T10:33:32.913Z,98047.07
2023-01-17T10:34:37.263Z,98047.47
2023-01-17T10:35:41.478Z,98055.33
2023-01-17T10:36:45.667Z,98045.56
2023-01-17T10:37:49.893Z,98053.55
2023-01-17T10:38:54.132Z,98046.8
2023-01-17T10:39:58.460Z,98055.03
2023-01-17T10:41:02.728Z,98063.95
2023-01-17T10:42:07.034Z,98059.42
2023-01-17T10:43:11.280Z,98054.36
2023-01-17T10:44:15.531Z,98059.94
2023-01-17T10:45:19.788Z,98062.61
2023-01-17T10:46:24.241Z,98057.75
2023-01-17T10:47:28.644Z,98062.88
2023-01-17T10:48:32.867Z,98058.45
2023-01-17T10:49:37.108Z,98060.78
2023-01-17T10:50:41.371Z,98065.34
2023-01-17T10:51:45.587Z,98071.06
2023-01-17T10:52:49.802Z,98069.83
2023-01-17T10:53:54.066Z,98068.39
2023-01-17T10:54:58.382Z,98067.84
2023-01-17T10:56:02.723Z,98063.09
2023-01-17T10:57:06.967Z,98066.72
2023-01-17T10:58:11.182Z,98064.23
2023-01-17T10:59:15.428Z,98063.88
2023-01-17T11:00:19.667Z,98063.78
2023-01-17T11:01:24.290Z,98063.32
2023-01-17T11:02:29.010Z,98065.31
2023-01-17T11:03:33.486Z,98061
2023-01-17T11:04:37.719Z,98067.13
2023-01-17T11:05:41.975Z,98065.51
2023-01-17T11:06:58.725Z,98073.34
2023-01-17T11:08:03.018Z,98074.13
2023-01-17T11:09:07.455Z,98073.08
2023-01-17T11:10:11.684Z,98073.14
2023-01-17T11:11:15.926Z,98064.37
2023-01-17T11:12:20.140Z,98070.76
2023-01-17T11:13:24.389Z,98070.86
2023-01-17T11:14:28.628Z,98062.83
2023-01-17T11:15:32.905Z,98068.48
2023-01-17T11:16:37.282Z,98063.86
2023-01-17T11:17:41.548Z,98060.35
2023-01-17T11:18:45.784Z,98067.67
2023-01-17T11:19:50.008Z,98066.44
2023-01-17T11:20:54.273Z,98067.13
2023-01-17T11:21:58.578Z,98065.09
2023-01-17T11:23:02.806Z,98069.28
2023-01-17T11:24:07.046Z,98071.48
2023-01-17T11:25:11.266Z,98067.88
2023-01-17T11:26:15.569Z,98064.27
2023-01-17T11:27:19.807Z,98061.79
2023-01-17T11:28:24.056Z,98065.91
2023-01-17T11:29:28.286Z,98068.59
2023-01-17T11:30:32.526Z,98061.89
2023-01-17T11:31:36.747Z,98061.09
2023-01-17T11:32:40.960Z,98066.14
2023-01-17T11:33:45.373Z,98063.47
2023-01-17T11:34:49.667Z,98066.84
2023-01-17T11:35:53.938Z,98071.37
2023-01-17T11:36:58.422Z,98066.55
2023-01-17T11:38:02.684Z,98061.09
2023-01-17T11:39:06.892Z,98062
2023-01-17T11:40:11.213Z,98067.19
2023-01-17T11:41:17.802Z,98065.12
2023-01-17T11:42:22.095Z,98069.37
2023-01-17T11:43:26.389Z,98069.88
2023-01-17T11:44:30.673Z,98070.17
2023-01-17T11:45:34.902Z,98067.39
2023-01-17T11:46:39.263Z,98066.39
2023-01-17T11:47:43.641Z,98064.22
2023-01-17T11:48:47.872Z,98055.39
2023-01-17T11:49:52.079Z,98067.03
2023-01-17T11:50:56.329Z,98056.53
2023-01-17T11:52:00.583Z,98063.12
2023-01-17T11:53:04.815Z,98067.33
2023-01-17T11:54:09.032Z,98069.77
2023-01-17T11:55:13.290Z,98065.84
2023-01-17T11:56:17.515Z,98067.77
2023-01-17T11:57:21.784Z,98064.08
2023-01-17T11:58:26.049Z,98065.13
2023-01-17T11:59:30.265Z,98063.89
2023-01-17T12:00:34.524Z,98064.63
2023-01-17T12:01:38.794Z,98070.63
2023-01-17T12:02:43.050Z,98068.88
2023-01-17T12:03:47.347Z,98061.2
2023-01-17T12:04:51.769Z,98062.19
2023-01-17T12:05:56.044Z,98065.16
2023-01-17T12:07:00.361Z,98071.86
2023-01-17T12:08:04.593Z,98058.36
2023-01-17T12:09:08.984Z,98066.7
2023-01-17T12:10:13.328Z,98061.69
2023-01-17T12:11:17.654Z,98062.94
2023-01-17T12:12:21.886Z,98061
2023-01-17T12:13:26.106Z,98060.09
2023-01-17T12:14:30.366Z,98072.6
2023-01-17T12:15:34.646Z,98074.15
2023-01-17T12:16:38.923Z,98070.38
2023-01-17T12:17:43.136Z,98071.11
2023-01-17T12:18:47.393Z,98081.63
2023-01-17T12:19:51.626Z,98075.45
2023-01-17T12:20:55.833Z,98075.79
2023-01-17T12:22:00.105Z,98077.58
2023-01-17T12:23:04.336Z,98077.11
2023-01-17T12:24:08.570Z,98070.42
2023-01-17T12:25:13.203Z,98077.62
2023-01-17T12:26:17.453Z,98076.09
2023-01-17T12:27:21.687Z,98079.3
2023-01-17T12:28:25.962Z,98083.13
2023-01-17T12:29:30.221Z,98078.81
2023-01-17T12:30:34.499Z,98080.79
2023-01-17T12:31:38.857Z,98079.39
2023-01-17T12:32:43.186Z,98079.59
2023-01-17T12:33:47.506Z,98078.36
2023-01-17T12:34:52.096Z,98078.06
2023-01-17T12:35:56.381Z,98082.08
2023-01-17T12:37:00.653Z,98078.41
2023-01-17T12:38:06.320Z,98072.25
2023-01-17T12:39:10.683Z,98076.47